Startpagina
METAR-TAF:

METAR-TAF

Vliegvelden :

Funafuti, Tuvalu

breedte: 08-31S, lengte: 179-13E, hoogte: 1 m

Actueel weer

Dit bericht is 48 minuten geleden gemaakt, om 01:00 UTC
Wind 5 kt uit het westnoordwesten
Temperatuur 32°C
Vochtigheid 63%
Druk 1007 hPa
Zicht 10 km of meer
Verspreide wolken op 2000 ft

METAR: NGFU 180100Z 30005KT 9999 SCT020 32/24 Q1007

Tijdstip: 13:48 (01:48 UTC)

Verwachting

Dit bericht is 2 uur en het 45 minuten geleden gemaakt, om 23:03 UTC
Verwachting geldig van 18 om 00 UTC tot 18 om 24 UTC
Wind 8 kt uit het noordwesten
Zicht 10 km of meer
Verspreide wolken op 1800 ft
Verspreide wolken op 4000 ft

TAF: NGFU 172303Z 1800/1824 32008KT 9999 SCT018 SCT040

Waarnemingen en weersverwachtingen van meer dan 4000 vliegvelden (METAR en TAF).

De beschikbare stations zijn de gele en rode punten op de kaart.

Ga met uw muis naar het station om de naam te zien.

Klik dan om waarnemingen en weersverwachtingen te zien.

kaart wijzigen: klik op de groene knoppen met een zwart kruis om in te zoomen, op de groene knop met een streepje om uit te zoomen of op de groene pijlen voor aangrenzende kaarten.


METAR-TAF: